Terrytown, Nebraska
Current Conditions -  °F | °C
As of 2:53 PM on Tuesday 21 Oct 2014 (Local Time) from KBFF Reporting Station
Scattered Clouds Scattered Clouds  
Wind Chill: 73°   Ceiling: Unl
Heat Index: 73°   Visibility: 10mi
Dew Point: 46°   Wind: 13mph
Humidity: 38%   Direction: 120°ESE
Pressure: 29.86"   Gusts: NA
Location:  41.7826°N, 103.681°W
Report Text: KBFF 212053Z AUTO 12011KT 10SM FEW065 FEW085 SCT110 23/08 A2986 RMK AO2 SLP078 T02280078 56022
Loading
Personal Weather Stations






























Interactive Weather Map
Tropical Storm Tracking
New forecast layout! Learn more

10-Day Weather Forecast

Advertisements
Track Severe Weather on mobile